Weather

DAILY 7 DAY TOTAL
onrain

Note: Some stations are located near irrigated fields and may also report irrigation

Alliston Mount Forest Blyth Guelph Grand Bend Strathroy Woodstock Belmont Simcoe Leamington Chatham West Lorne






Belmont - Historical Weather Data
Date Max Temp (°C) Min Temp (°C) Avg Temp (°C) Rain (mm) 7Day Rain(mm) Total Rain(mm) Avg RH (%)
9/18/2017 28.9 13.9 20.5 0.2 0.4 355.4 96.2
9/17/2017 29.3 10.5 18.7 0.0 0.2 355.2 92.0
9/16/2017 28.1 10.9 18.3 0.0 0.2 355.2 91.4
9/15/2017 26.8 9.4 16.9 0.0 0.4 355.2 92.6
9/14/2017 26.1 11.5 18.2 0.2 0.6 355.2 94.1
9/13/2017 27.3 7.1 17.0 0.0 2.2 355.0 94.3
9/12/2017 26.2 4.3 14.5 0.0 2.2 355.0 89.2
9/11/2017 24.8 3.0 12.9 0.0 4.0 355.0 89.3
9/10/2017 21.3 2.6 11.4 0.0 17.2 355.0 89.0
9/9/2017 18.7 3.2 10.4 0.2 29.0 355.0 88.3
9/8/2017 18.5 5.8 12.5 0.2 31.8 354.8 95.6
9/7/2017 19.6 4.3 11.8 1.8 31.6 354.6 93.9
9/6/2017 19.4 5.4 12.9 0.0 29.8 352.8 92.0
9/5/2017 21.1 11.7 15.9 1.8 29.8 352.8 94.5
9/4/2017 25.5 9.1 17.7 13.2 28.0 351.0 94.6
9/3/2017 21.4 11.3 15.9 11.8 14.8 337.8 95.6
9/2/2017 21.9 4.8 13.4 3.0 3.0 326.0 89.4
9/1/2017 18.6 2.4 10.4 0.0 0.0 323.0 87.4
8/31/2017 20.9 6.4 15.7 0.0 0.0 323.0 89.2
8/30/2017 25.5 11.1 17.8 0.0 0.2 323.0 95.2
8/29/2017 23.5 13.2 18.9 0.0 0.4 323.0 94.4
8/28/2017 24.7 14.2 19.2 0.0 4.4 323.0 92.6
8/27/2017 25.3 7.0 16.5 0.0 4.4 323.0 87.6
8/26/2017 23.3 3.8 13.3 0.0 4.4 323.0 84.8
8/25/2017 22.2 4.9 13.8 0.0 4.4 323.0 87.3
8/24/2017 20.8 7.0 14.1 0.2 4.6 323.0 96.4
8/23/2017 22.8 9.4 15.6 0.2 17.8 322.8 93.1
8/22/2017 25.6 13.4 21.9 4.0 17.6 322.6 99.6
8/21/2017 30.3 14.4 22.0 0.0 13.6 318.6 93.2
8/20/2017 28.4 11.4 19.3 0.0 13.6 318.6 91.7
8/19/2017 24.0 12.8 18.6 0.0 13.6 318.6 93.8
8/18/2017 24.6 19.1 21.8 0.2 13.6 318.6 97.3
8/17/2017 23.1 12.5 19.3 13.4 14.6 318.4 99.6
8/16/2017 28.0 8.8 18.4 0.0 1.2 305.0 89.5
8/15/2017 27.1 12.4 19.8 0.0 1.2 305.0 92.0
8/14/2017 27.4 11.7 19.2 0.0 1.2 305.0 87.2
8/13/2017 26.8 9.0 18.2 0.0 1.2 305.0 88.0
8/12/2017 25.7 12.7 19.0 0.0 1.2 305.0 94.3
8/11/2017 23.3 14.3 19.9 1.2 1.2 305.0 99.9
8/10/2017 28.4 10.5 19.8 0.0 21.4 303.8 87.9
8/9/2017 28.4 11.2 19.4 0.0 23.0 303.8 87.9
8/8/2017 26.9 7.4 17.4 0.0 28.8 303.8 87.8
8/7/2017 24.3 12.3 18.4 0.0 28.8 303.8 93.3
8/6/2017 25.3 8.5 17.1 0.0 28.8 303.8 92.2
8/5/2017 21.5 10.2 16.6 0.0 28.8 303.8 92.7
8/4/2017 24.5 15.8 20.2 21.4 28.8 303.8 96.8
8/3/2017 28.6 14.6 21.8 1.6 7.4 282.4 94.6
8/2/2017 29.4 13.1 20.5 5.8 6.0 280.8 93.2
8/1/2017 31.2 13.4 22.1 0.0 0.2 275.0 86.0
7/31/2017 30.2 11.3 21.2 0.0 0.2 275.0 85.9
7/30/2017 28.9 13.6 21.5 0.0 0.2 275.0 80.9
7/29/2017 27.6 11.0 19.6 0.0 0.2 275.0 82.2
7/28/2017 23.9 13.4 19.3 0.0 0.2 275.0 90.6
7/27/2017 27.6 18.3 22.5 0.2 0.2 275.0 95.2
7/26/2017 25.2 9.4 18.7 0.0 0.0 274.8 94.1
7/25/2017 27.2 13.6 18.9 0.0 0.0 274.8 91.7
7/24/2017 20.0 15.7 18.0 0.0 0.0 274.8 99.3
7/23/2017 27.9 18.0 22.6 0.0 0.0 274.8 96.1
7/22/2017 26.9 18.7 21.5 0.0 18.6 274.8 98.6
7/21/2017 30.4 16.2 23.0 0.0 18.6 274.8 89.6
7/20/2017 30.9 15.9 23.3 0.0 18.8 274.8 93.2
7/19/2017 31.4 14.9 22.8 0.0 26.6 274.8 90.2
7/18/2017 28.3 10.7 19.9 0.0 30.6 274.8 90.9
7/17/2017 25.4 13.7 20.0 0.0 30.8 274.8 94.9
7/16/2017 26.6 14.5 20.2 18.6 33.2 274.8 96.5
7/15/2017 26.4 14.7 20.5 0.0 14.6 256.2 90.8
7/14/2017 26.6 17.4 21.6 0.2 14.6 256.2 94.8
7/13/2017 27.8 18.8 22.8 7.8 17.6 256.0 99.9
7/12/2017 26.7 20.2 23.4 4.0 9.8 248.2 100.0
7/11/2017 28.5 15.6 22.1 0.2 5.8 244.2 96.0
7/10/2017 22.6 14.7 19.5 2.4 5.6 244.0 99.1
7/9/2017 26.7 9.8 19.4 0.0 3.2 241.6 81.7
7/8/2017 24.0 11.3 19.3 0.0 3.2 241.6 86.6
7/7/2017 27.8 14.8 21.2 3.2 5.8 241.6 97.7
7/6/2017 29.5 12.2 21.3 0.0 6.2 238.4 86.6
7/5/2017 29.4 10.3 20.5 0.0 8.0 238.4 82.6
7/4/2017 26.9 10.3 19.0 0.0 8.2 238.4 84.2
7/3/2017 25.0 13.3 19.4 0.0 8.6 238.4 87.6
7/2/2017 28.2 12.7 20.6 0.0 8.6 238.4 89.5
7/1/2017 25.6 15.0 20.0 2.6 9.8 238.4 99.4
6/30/2017 26.7 18.5 21.4 3.6 17.6 235.8 99.0
6/29/2017 27.0 16.0 21.1 1.8 43.8 232.2 95.0
6/28/2017 23.1 9.4 17.3 0.2 49.0 230.4 85.4
6/27/2017 20.8 9.6 15.0 0.4 49.0 230.2 89.4
6/26/2017 21.5 10.9 16.2 0.0 51.0 229.8 89.9
6/25/2017 20.8 10.0 15.4 1.2 78.8 229.8 92.8
6/24/2017 24.7 12.2 18.2 10.4 86.2 228.6 91.4
6/23/2017 25.0 18.3 21.2 29.8 75.8 218.2 100.0
6/22/2017 28.6 10.8 19.4 7.0 46.2 188.4 96.1
6/21/2017 23.0 10.1 17.2 0.2 40.2 181.4 91.3
6/20/2017 23.6 12.6 17.1 2.4 40.0 181.2 92.8
6/19/2017 26.2 14.0 19.0 27.8 37.6 178.8 92.6
6/18/2017 27.9 17.6 23.6 8.6 9.8 151.0 95.3
6/17/2017 29.2 17.6 23.8 0.0 1.2 142.4 92.5
6/16/2017 30.4 17.3 23.8 0.2 1.2 142.4 84.1
6/15/2017 26.4 15.7 21.0 1.0 1.0 142.2 88.1
6/14/2017 29.0 17.2 22.6 0.0 0.0 141.2 73.0
6/13/2017 30.4 18.3 24.5 0.0 0.0 141.2 82.6
6/12/2017 30.8 17.6 25.0 0.0 3.2 141.2 81.2
6/11/2017 29.5 18.3 24.1 0.0 3.2 141.2 78.0
6/10/2017 28.9 12.3 21.6 0.0 23.4 141.2 82.5
6/9/2017 27.1 9.7 17.8 0.0 23.4 141.2 84.1
6/8/2017 23.5 7.4 16.2 0.0 23.4 141.2 78.6
6/7/2017 21.9 8.6 15.0 0.0 23.4 141.2 86.9
6/6/2017 17.8 11.6 14.1 3.2 23.4 141.2 99.6
6/5/2017 18.3 12.5 15.8 0.0 22.4 138.0 99.0
6/4/2017 27.3 13.5 18.7 20.2 23.8 138.0 93.6
6/3/2017 24.0 9.5 16.9 0.0 5.2 117.8 72.6
6/2/2017 22.0 7.3 15.2 0.0 5.2 117.8 76.1
6/1/2017 20.2 8.4 13.9 0.0 5.4 117.8 78.9
5/31/2017 22.9 9.0 16.4 0.0 28.4 117.8 82.2
5/30/2017 23.3 11.8 17.8 2.2 29.8 117.8 83.7
5/29/2017 24.8 14.8 18.8 1.4 27.6 115.6 86.8
5/28/2017 25.6 9.4 17.4 1.6 26.2 114.2 90.8
5/27/2017 22.9 8.4 15.2 0.0 40.4 112.6 93.0
5/26/2017 16.2 10.2 13.3 0.2 40.4 112.6 100.0
5/25/2017 14.6 12.0 13.6 23.0 40.2 112.4 100.0
5/24/2017 20.9 12.9 16.1 1.4 17.2 89.4 95.3
5/23/2017 23.1 7.6 16.3 0.0 15.8 88.0 81.8
5/22/2017 17.2 9.3 13.8 0.0 19.6 88.0 92.5
5/21/2017 19.1 10.4 15.2 15.8 19.6 88.0 97.4
5/20/2017 19.1 8.6 13.3 0.0 5.2 72.2 67.3
5/19/2017 19.0 7.0 12.1 0.0 5.8 72.2 88.7
5/18/2017 28.4 18.1 23.8 0.0 5.8 72.2 77.1
5/17/2017 29.3 14.2 22.2 0.0 6.8 72.2 82.3
5/16/2017 22.3 4.6 13.0 3.8 6.8 72.2 94.2
5/15/2017 19.9 2.7 11.4 0.0 3.0 68.4 76.6
5/14/2017 13.7 6.0 10.8 1.4 3.0 68.4 89.1
5/13/2017 21.3 2.6 12.0 0.6 1.8 67.0 83.2
5/12/2017 16.3 6.0 10.9 0.0 3.6 66.4 88.9
5/11/2017 15.7 6.4 10.3 1.0 26.2 66.4 81.5
5/10/2017 15.9 4.5 9.9 0.0 54.0 65.4 80.2
5/9/2017 14.8 -2.1 6.8 0.0 54.4 65.4 78.6
5/8/2017 10.8 0.5 5.8 0.0 55.4 65.4 77.5
5/7/2017 8.5 1.5 5.6 0.2 65.4 65.4 87.1
5/6/2017 7.1 5.0 6.1 2.4 81.4 65.2 100.0
5/5/2017 8.8 4.7 6.8 22.6 79.2 62.8 100.0
5/4/2017 8.1 4.2 6.7 28.8 56.6 40.2 97.8
5/3/2017 13.2 3.3 8.2 0.4 30.4 11.4 85.6
5/2/2017 10.1 5.3 8.5 1.0 30.0 11.0 97.1
5/1/2017 18.1 6.9 11.7 10.0 31.0 10.0 99.2